»·PEaware :: TPX763 KLAS-KSAN

TPX763 :: KLAS-KSAN

FLIGHT INFORMATION

Flight Status: Arrived
Operator: ATP Experience
More flights by this operator :: More flights under this callsign
Pilot: Dave P. (45)
Aircraft: BOEING 737-800
(B738)
More flights by this aircraft type
Origin: KLAS McCarran Intl
United States
Destination: KSAN San Diego Intl-Lindbergh
United States
More flights between these airports :: More routes between these airports
Route: BOACH8 LVELL LUCKI1
File this flight plan on PilotEdge
Remarks: PBN / A1B1C1D1S1S2 DOF / 180623 REG / N738PM OPR / TPX PER / D RMK / TCAS SIMBRIEF
Altitude:
(Current/Filed)
28,000ft
Speed:
(Current/Filed)
458kts
Departed: 23-Jun-18 08:42 AM
Arrived: 23-Jun-18 09:26 AM
Distance/Time
Traveled:
225nm/0:44
Distance/Time
To Go:
Arrived

Flight Plot

Page will automatically refresh every two minutes.

Flight plan parsing failed; only flown route is shown


Map Options




Map Legend


Flown Route
Filed Route
Departure Airport
Arrival Airport
Navaid (VOR, NDB)
Fix

Horizontal Profiles

Position Reports

Time Latitude Longitude Heading Altitude Ground
Speed
23-Jun-18 08:22 36.080008 -115.139383 324 2189ft 0kts
23-Jun-18 08:23 36.080008 -115.139383 324 2189ft 0kts
23-Jun-18 08:24 36.080008 -115.139383 324 2189ft 0kts
23-Jun-18 08:25 36.080008 -115.139383 324 2189ft 0kts
23-Jun-18 08:26 36.080008 -115.139383 324 2189ft 0kts
23-Jun-18 08:27 36.080008 -115.139383 324 2189ft 0kts
23-Jun-18 08:28 36.080008 -115.139383 324 2189ft 0kts
23-Jun-18 08:29 36.080008 -115.139383 324 2189ft 0kts
23-Jun-18 08:30 36.080008 -115.139383 324 2189ft 0kts
23-Jun-18 08:31 36.079746 -115.139155 324 2189ft 2kts
23-Jun-18 08:32 36.079432 -115.138882 324 2189ft 0kts
23-Jun-18 08:33 36.079433 -115.138883 324 2189ft 0kts
23-Jun-18 08:34 36.079434 -115.138883 324 2189ft 0kts
23-Jun-18 08:35 36.078965 -115.139508 210 2189ft 0kts
23-Jun-18 08:36 36.078963 -115.139509 210 2189ft 0kts
23-Jun-18 08:37 36.078239 -115.136542 90 2189ft 21kts
23-Jun-18 08:38 36.078244 -115.129730 89 2189ft 20kts
23-Jun-18 08:39 36.078152 -115.123135 114 2189ft 13kts
23-Jun-18 08:40 36.077108 -115.121302 179 2189ft 0kts
23-Jun-18 08:41 36.076562 -115.121307 189 2189ft 10kts
23-Jun-18 08:42 36.076338 -115.136764 269 2190ft 146kts
23-Jun-18 08:43 36.076314 -115.194747 269 4610ft 199kts
23-Jun-18 08:44 36.052837 -115.268710 208 6548ft 283kts
23-Jun-18 08:45 35.976412 -115.297888 196 7003ft 285kts
23-Jun-18 08:46 35.896477 -115.310649 185 10030ft 293kts
23-Jun-18 08:47 35.808425 -115.310314 174 12266ft 348kts
23-Jun-18 08:48 35.708096 -115.298120 176 15165ft 373kts
23-Jun-18 08:49 35.601603 -115.297404 184 17992ft 394kts
23-Jun-18 08:50 35.489210 -115.302157 184 20667ft 412kts
23-Jun-18 08:51 35.372521 -115.306764 184 23012ft 428kts
23-Jun-18 08:52 35.251513 -115.311527 184 25096ft 442kts
23-Jun-18 08:53 35.126586 -115.316436 184 27075ft 453kts
23-Jun-18 08:54 35.000694 -115.321388 184 27814ft 451kts
23-Jun-18 08:55 34.896528 -115.325456 184 27820ft 450kts
23-Jun-18 08:56 34.771981 -115.337233 195 27825ft 445kts
23-Jun-18 08:57 34.655623 -115.385350 202 27844ft 442kts
23-Jun-18 08:58 34.540094 -115.436307 202 27856ft 442kts
23-Jun-18 08:59 34.424037 -115.486886 202 27871ft 442kts
23-Jun-18 09:00 34.292417 -115.553633 213 27884ft 438kts
23-Jun-18 09:01 34.204878 -115.616506 207 27876ft 440kts
23-Jun-18 09:02 34.091033 -115.671394 203 27874ft 441kts
23-Jun-18 09:03 33.976678 -115.725103 203 27864ft 441kts
23-Jun-18 09:04 33.862412 -115.780020 204 27848ft 441kts
23-Jun-18 09:05 33.748752 -115.835397 203 27829ft 441kts
23-Jun-18 09:06 33.634364 -115.888829 203 27769ft 441kts
23-Jun-18 09:07 33.525564 -115.946075 218 25671ft 416kts
23-Jun-18 09:08 33.453486 -116.050680 236 23254ft 401kts
23-Jun-18 09:09 33.390838 -116.158538 236 21029ft 389kts
23-Jun-18 09:10 33.322123 -116.255371 215 18841ft 380kts
23-Jun-18 09:11 33.229395 -116.313602 207 16655ft 372kts
23-Jun-18 09:12 33.138584 -116.366615 207 14757ft 357kts
23-Jun-18 09:13 33.050158 -116.418168 206 12781ft 348kts
23-Jun-18 09:14 32.972685 -116.476394 221 11608ft 322kts
23-Jun-18 09:15 32.906127 -116.544467 220 10525ft 301kts
23-Jun-18 09:16 32.844940 -116.606153 221 9651ft 282kts
23-Jun-18 09:17 32.785249 -116.666435 223 8271ft 282kts
23-Jun-18 09:18 32.743403 -116.741815 242 7073ft 258kts
23-Jun-18 09:19 32.710368 -116.812032 241 6073ft 234kts
23-Jun-18 09:20 32.687946 -116.880267 249 5590ft 207kts
23-Jun-18 09:21 32.673705 -116.944300 280 4603ft 189kts
23-Jun-18 09:22 32.688592 -117.004483 285 3575ft 191kts
23-Jun-18 09:23 32.703090 -117.064034 284 2400ft 181kts
23-Jun-18 09:24 32.716218 -117.118148 282 1319ft 159kts
23-Jun-18 09:25 32.727578 -117.165000 281 388ft 141kts
23-Jun-18 09:26 32.735290 -117.197687 249 23ft 14kts
23-Jun-18 09:27 32.734794 -117.198373 168 23ft 6kts
23-Jun-18 09:28 32.733597 -117.194460 137 23ft 9kts
23-Jun-18 09:29 32.732864 -117.195490 274 23ft 0kts
23-Jun-18 09:30 32.732864 -117.195490 274 23ft 0kts
23-Jun-18 09:31 32.732864 -117.195490 274 23ft 0kts
23-Jun-18 09:32 32.732864 -117.195490 274 23ft 0kts
23-Jun-18 09:33 32.732864 -117.195490 274 23ft 0kts
23-Jun-18 09:34 32.732864 -117.195490 274 23ft 0kts
23-Jun-18 09:35 32.732864 -117.195490 274 23ft 0kts
23-Jun-18 09:36 32.732864 -117.195490 274 23ft 0kts
23-Jun-18 09:37 32.732864 -117.195490 274 23ft 0kts

Navigation Log

Ident Type
Flight plan parsing failed, navigation log unavailable